createdAt,value
2023-09-10T00:01:01.775Z,2.40
2023-09-10T00:03:28.716Z,2.13
2023-09-10T00:05:55.930Z,2.00
2023-09-10T00:08:22.702Z,2.05
2023-09-10T00:10:49.729Z,2.00
2023-09-10T00:13:16.551Z,2.53
2023-09-10T00:15:43.249Z,1.88
2023-09-10T00:18:10.097Z,2.25
2023-09-10T00:20:39.730Z,1.90
2023-09-10T00:23:06.647Z,1.98
2023-09-10T00:25:33.463Z,1.92
2023-09-10T00:28:00.267Z,2.13
2023-09-10T00:30:30.293Z,1.90
2023-09-10T00:32:57.178Z,2.50
2023-09-10T00:35:23.914Z,2.30
2023-09-10T00:37:50.803Z,1.90
2023-09-10T00:40:17.564Z,2.30
2023-09-10T00:42:44.237Z,2.28
2023-09-10T00:45:15.633Z,2.10
2023-09-10T00:47:46.071Z,2.17
2023-09-10T00:50:14.928Z,2.13
2023-09-10T00:52:51.266Z,2.33
2023-09-10T00:55:19.845Z,2.22
2023-09-10T00:57:46.736Z,1.92
2023-09-10T01:00:14.536Z,2.13
2023-09-10T01:02:44.772Z,2.28
2023-09-10T01:05:13.015Z,2.08
2023-09-10T01:07:39.926Z,2.03
2023-09-10T01:10:07.895Z,2.22
2023-09-10T01:12:46.848Z,2.25
2023-09-10T01:15:27.790Z,2.10
2023-09-10T01:18:14.980Z,2.20
2023-09-10T01:21:09.707Z,1.90
2023-09-10T01:23:49.291Z,1.85
2023-09-10T01:26:15.968Z,2.30
2023-09-10T01:28:42.854Z,2.00
2023-09-10T01:31:09.692Z,2.25
2023-09-10T01:33:43.111Z,1.80
2023-09-10T01:36:16.248Z,2.00
2023-09-10T01:38:55.314Z,2.15
2023-09-10T01:41:22.683Z,2.20
2023-09-10T01:43:51.677Z,2.22
2023-09-10T01:46:20.378Z,2.53
2023-09-10T01:48:48.094Z,1.90
2023-09-10T01:53:41.403Z,1.75
2023-09-10T01:56:08.307Z,2.17
2023-09-10T01:58:35.373Z,1.90
2023-09-10T02:01:02.149Z,2.20
2023-09-10T02:03:29.167Z,1.90
2023-09-10T02:05:59.023Z,2.00
2023-09-10T02:08:26.118Z,1.88
2023-09-10T02:10:52.895Z,2.28
2023-09-10T02:13:19.661Z,1.92
2023-09-10T02:15:46.584Z,2.40
2023-09-10T02:18:13.391Z,1.90
2023-09-10T02:20:40.162Z,1.80
2023-09-10T02:23:07.076Z,1.77
2023-09-10T02:25:34.358Z,2.30
2023-09-10T02:28:02.540Z,1.92
2023-09-10T02:30:29.296Z,2.20
2023-09-10T02:32:56.825Z,2.30
2023-09-10T02:35:24.416Z,2.30
2023-09-10T02:37:51.234Z,2.20
2023-09-10T02:40:18.085Z,1.90
2023-09-10T02:42:44.840Z,1.95
2023-09-10T02:45:12.942Z,1.95
2023-09-10T02:47:40.049Z,2.45
2023-09-10T02:50:07.165Z,1.90
2023-09-10T02:52:33.888Z,2.20
2023-09-10T02:55:00.934Z,2.10
2023-09-10T02:57:27.721Z,2.08
2023-09-10T02:59:54.415Z,2.30
2023-09-10T03:02:21.231Z,2.33
2023-09-10T03:04:48.155Z,1.67
2023-09-10T03:07:15.075Z,1.90
2023-09-10T03:09:41.794Z,2.20
2023-09-10T03:12:21.059Z,1.92
2023-09-10T03:14:47.804Z,2.28
2023-09-10T03:17:14.792Z,2.20
2023-09-10T03:19:42.029Z,2.08
2023-09-10T03:22:08.778Z,2.17
2023-09-10T03:24:36.194Z,2.67
2023-09-10T03:27:03.194Z,2.15
2023-09-10T03:29:31.556Z,2.45
2023-09-10T03:31:58.317Z,2.00
2023-09-10T03:34:25.089Z,2.20
2023-09-10T03:36:51.784Z,2.40
2023-09-10T03:39:18.565Z,1.98
2023-09-10T03:41:46.478Z,2.28
2023-09-10T03:44:13.326Z,2.10
2023-09-10T03:46:40.209Z,2.15
2023-09-10T03:49:07.013Z,2.22
2023-09-10T03:51:33.781Z,3.22
2023-09-10T03:54:00.508Z,2.00
2023-09-10T03:56:27.297Z,2.30
2023-09-10T03:58:54.057Z,2.30
2023-09-10T04:01:20.843Z,2.95
2023-09-10T04:03:47.654Z,2.70
2023-09-10T04:06:14.422Z,2.42
2023-09-10T04:08:41.231Z,2.00
2023-09-10T04:11:10.236Z,2.20
2023-09-10T04:13:38.386Z,2.50
2023-09-10T04:16:05.084Z,2.85
2023-09-10T04:18:31.866Z,2.55
2023-09-10T04:20:58.639Z,2.50
2023-09-10T04:23:25.437Z,3.55
2023-09-10T04:25:52.250Z,2.25
2023-09-10T04:28:19.064Z,3.00
2023-09-10T04:30:45.816Z,2.83
2023-09-10T04:33:13.221Z,1.98
2023-09-10T04:35:48.672Z,1.80
2023-09-10T04:38:15.414Z,2.40
2023-09-10T04:40:43.262Z,2.17
2023-09-10T04:43:10.081Z,2.80
2023-09-10T04:45:37.391Z,2.30
2023-09-10T04:48:05.464Z,2.20
2023-09-10T04:50:32.635Z,2.63
2023-09-10T04:53:02.013Z,2.05
2023-09-10T04:55:28.720Z,3.00
2023-09-10T04:57:55.430Z,2.40
2023-09-10T05:00:22.399Z,2.20
2023-09-10T05:02:49.271Z,2.35
2023-09-10T05:05:16.315Z,2.05
2023-09-10T05:07:43.116Z,2.30
2023-09-10T05:10:11.770Z,2.05
2023-09-10T05:12:38.445Z,2.13
2023-09-10T05:15:05.713Z,3.05
2023-09-10T05:17:32.498Z,2.28
2023-09-10T05:19:59.325Z,2.53
2023-09-10T05:22:26.072Z,2.80
2023-09-10T05:24:52.890Z,2.67
2023-09-10T05:27:19.577Z,3.65
2023-09-10T05:29:46.288Z,2.30
2023-09-10T05:32:13.119Z,3.03
2023-09-10T05:34:39.961Z,3.13
2023-09-10T05:37:06.709Z,3.33
2023-09-10T05:39:34.536Z,3.28
2023-09-10T05:42:01.313Z,2.90
2023-09-10T05:44:28.017Z,2.70
2023-09-10T05:46:54.811Z,3.22
2023-09-10T05:49:21.559Z,3.22
2023-09-10T05:51:48.280Z,2.70
2023-09-10T05:54:17.537Z,2.80
2023-09-10T05:56:44.626Z,2.95
2023-09-10T05:59:11.392Z,2.80
2023-09-10T06:01:38.191Z,2.40
2023-09-10T06:04:05.265Z,3.60
2023-09-10T06:06:32.103Z,2.33
2023-09-10T06:08:58.927Z,2.85
2023-09-10T06:11:25.803Z,2.45
2023-09-10T06:13:52.554Z,2.67
2023-09-10T06:16:19.369Z,2.63
2023-09-10T06:18:48.971Z,2.70
2023-09-10T06:21:15.708Z,2.75
2023-09-10T06:23:42.457Z,2.83
2023-09-10T06:26:09.245Z,2.67
2023-09-10T06:28:36.267Z,2.53
2023-09-10T06:31:03.009Z,2.78
2023-09-10T06:33:29.774Z,3.08
2023-09-10T06:35:56.867Z,3.20
2023-09-10T06:38:23.784Z,2.50
2023-09-10T06:40:52.442Z,2.65
2023-09-10T06:43:19.289Z,2.90
2023-09-10T06:45:46.117Z,2.80
2023-09-10T06:48:12.919Z,2.58
2023-09-10T06:50:39.679Z,2.42
2023-09-10T06:53:06.397Z,2.55
2023-09-10T06:55:33.092Z,2.28
2023-09-10T06:57:59.796Z,2.63
2023-09-10T07:00:26.593Z,2.47
2023-09-10T07:02:53.416Z,2.50
2023-09-10T07:05:20.401Z,2.67
2023-09-10T07:07:47.318Z,2.70
2023-09-10T07:10:14.088Z,3.55
2023-09-10T07:12:40.742Z,2.58
2023-09-10T07:15:07.837Z,2.30
2023-09-10T07:17:34.690Z,2.92
2023-09-10T07:20:01.424Z,3.08
2023-09-10T07:22:28.167Z,2.60
2023-09-10T07:24:54.840Z,2.85
2023-09-10T07:27:21.573Z,2.70
2023-09-10T07:29:49.629Z,2.33
2023-09-10T07:32:16.336Z,2.50
2023-09-10T07:34:43.061Z,2.70
2023-09-10T07:37:11.214Z,2.22
2023-09-10T07:39:39.110Z,2.63
2023-09-10T07:42:05.879Z,2.40
2023-09-10T07:44:32.713Z,2.28
2023-09-10T07:46:59.543Z,2.95
2023-09-10T07:49:26.279Z,2.80
2023-09-10T07:51:52.983Z,2.20
2023-09-10T07:54:19.788Z,2.88
2023-09-10T07:56:47.112Z,2.30
2023-09-10T07:59:13.927Z,2.45
2023-09-10T08:01:40.632Z,2.50
2023-09-10T08:04:07.684Z,2.28
2023-09-10T08:06:34.433Z,2.70
2023-09-10T08:09:01.140Z,2.60
2023-09-10T08:11:28.139Z,2.58
2023-09-10T08:13:54.885Z,2.55
2023-09-10T08:16:21.798Z,2.78
2023-09-10T08:18:48.641Z,2.38
2023-09-10T08:21:15.394Z,2.17
2023-09-10T08:23:43.892Z,2.65
2023-09-10T08:26:10.799Z,2.78
2023-09-10T08:28:37.822Z,2.25
2023-09-10T08:31:05.534Z,2.35
2023-09-10T08:33:35.643Z,2.63
2023-09-10T08:36:02.430Z,2.05
2023-09-10T08:38:29.224Z,2.00
2023-09-10T08:41:05.871Z,2.75
2023-09-10T08:43:57.095Z,1.80
2023-09-10T08:46:31.523Z,2.58
2023-09-10T08:49:00.092Z,1.80
2023-09-10T08:51:28.638Z,2.47
2023-09-10T08:53:58.361Z,2.00
2023-09-10T08:56:26.919Z,1.98
2023-09-10T08:58:55.174Z,6.40
2023-09-10T09:01:24.992Z,1.75
2023-09-10T09:03:57.847Z,1.60
2023-09-10T09:06:29.828Z,1.70
2023-09-10T09:08:58.352Z,2.33
2023-09-10T09:11:26.544Z,2.08
2023-09-10T09:13:55.330Z,1.67
2023-09-10T09:16:22.135Z,1.70
2023-09-10T09:18:50.067Z,1.70
2023-09-10T09:21:22.100Z,2.40
2023-09-10T09:24:02.831Z,1.70
2023-09-10T09:26:30.504Z,2.20
2023-09-10T09:28:57.758Z,1.90
2023-09-10T09:31:25.758Z,1.77
2023-09-10T09:33:53.355Z,2.33
2023-09-10T09:36:20.122Z,1.67
2023-09-10T09:38:48.999Z,2.03
2023-09-10T09:41:16.684Z,3.58
2023-09-10T09:43:44.210Z,2.00
2023-09-10T09:46:11.235Z,1.65
2023-09-10T09:48:39.285Z,1.83
2023-09-10T09:51:07.157Z,2.05
2023-09-10T09:53:35.184Z,1.52
2023-09-10T09:56:06.739Z,1.70
2023-09-10T09:58:34.632Z,1.35
2023-09-10T10:01:02.266Z,1.45
2023-09-10T10:03:34.891Z,1.35
2023-09-10T10:06:03.160Z,1.58
2023-09-10T10:08:30.959Z,2.33
2023-09-10T10:10:58.306Z,1.55
2023-09-10T10:15:55.181Z,1.70
2023-09-10T10:18:23.631Z,1.88
2023-09-10T10:20:51.343Z,1.42
2023-09-10T10:23:26.194Z,2.35
2023-09-10T10:25:54.662Z,1.65
2023-09-10T10:28:22.134Z,1.38
2023-09-10T10:31:05.997Z,2.05
2023-09-10T10:33:35.114Z,1.13
2023-09-10T10:36:11.551Z,2.28
2023-09-10T10:38:44.505Z,1.90
2023-09-10T10:41:17.913Z,2.03
2023-09-10T10:44:11.676Z,1.70
2023-09-10T10:46:41.406Z,1.90
2023-09-10T10:49:08.964Z,1.40
2023-09-10T10:51:55.321Z,1.65
2023-09-10T10:54:24.176Z,1.38
2023-09-10T10:56:51.340Z,1.33
2023-09-10T10:59:19.197Z,1.52
2023-09-10T11:02:11.580Z,1.90
2023-09-10T11:04:38.489Z,1.20
2023-09-10T11:07:21.523Z,1.25
2023-09-10T11:09:49.157Z,1.33
2023-09-10T11:12:17.001Z,1.40
2023-09-10T11:15:01.827Z,1.50
2023-09-10T11:17:30.533Z,1.40
2023-09-10T11:19:57.495Z,1.77
2023-09-10T11:22:24.314Z,1.30
2023-09-10T11:25:08.081Z,1.67
2023-09-10T11:27:35.686Z,1.30
2023-09-10T11:30:06.745Z,2.95
2023-09-10T11:32:33.753Z,1.20
2023-09-10T11:35:18.961Z,1.38
2023-09-10T11:37:53.086Z,1.30
2023-09-10T11:40:21.179Z,1.40
2023-09-10T11:42:49.552Z,1.40
2023-09-10T11:45:17.531Z,1.30
2023-09-10T11:47:51.675Z,1.40
2023-09-10T11:50:24.957Z,1.40
2023-09-10T11:52:52.145Z,1.20
2023-09-10T11:55:19.877Z,1.40
2023-09-10T11:57:47.840Z,1.35
2023-09-10T12:00:17.476Z,1.48
2023-09-10T12:02:44.994Z,1.38
2023-09-10T12:05:12.235Z,1.98
2023-09-10T12:07:44.468Z,1.55
2023-09-10T12:10:11.541Z,1.50
2023-09-10T12:12:39.022Z,1.20
2023-09-10T12:17:34.132Z,1.45
2023-09-10T12:20:01.245Z,1.25
2023-09-10T12:22:28.029Z,1.67
2023-09-10T12:24:54.869Z,1.13
2023-09-10T12:27:22.980Z,1.17
2023-09-10T12:29:52.038Z,1.30
2023-09-10T12:32:18.808Z,1.30
2023-09-10T12:34:45.855Z,1.50
2023-09-10T12:37:19.348Z,1.05
2023-09-10T12:42:15.618Z,1.10
2023-09-10T12:44:42.471Z,1.80
2023-09-10T12:47:13.893Z,1.55
2023-09-10T12:49:41.809Z,1.30
2023-09-10T12:52:08.764Z,1.33
2023-09-10T12:54:36.063Z,1.20
2023-09-10T12:57:06.170Z,1.20
2023-09-10T12:59:33.114Z,1.40
2023-09-10T13:02:03.410Z,1.38
2023-09-10T13:04:30.175Z,1.42
2023-09-10T13:06:56.989Z,1.35
2023-09-10T13:09:23.708Z,1.10
2023-09-10T13:11:50.396Z,0.98
2023-09-10T13:14:18.695Z,1.50
2023-09-10T13:16:45.480Z,1.20
2023-09-10T13:19:12.424Z,1.63
2023-09-10T13:21:39.325Z,1.08
2023-09-10T13:24:06.455Z,1.10
2023-09-10T13:26:33.208Z,1.30
2023-09-10T13:28:59.946Z,1.40
2023-09-10T13:31:27.318Z,1.27
2023-09-10T13:33:54.082Z,1.25
2023-09-10T13:36:20.863Z,1.02
2023-09-10T13:38:48.833Z,1.38
2023-09-10T13:41:15.931Z,1.00
2023-09-10T13:43:43.169Z,0.82
2023-09-10T13:46:10.236Z,1.73
2023-09-10T13:48:37.112Z,1.10
2023-09-10T13:51:04.010Z,1.20
2023-09-10T13:53:30.888Z,1.30
2023-09-10T13:55:57.753Z,1.35
2023-09-10T13:58:24.497Z,2.65
2023-09-10T14:00:51.191Z,1.13
2023-09-10T14:03:17.987Z,0.95
2023-09-10T14:05:44.897Z,1.30
2023-09-10T14:08:11.822Z,1.02
2023-09-10T14:10:38.706Z,1.05
2023-09-10T14:13:05.452Z,1.10
2023-09-10T14:15:32.267Z,1.10
2023-09-10T14:17:59.043Z,1.10
2023-09-10T14:20:25.951Z,0.90
2023-09-10T14:22:53.578Z,1.42
2023-09-10T14:25:20.535Z,1.02
2023-09-10T14:27:47.881Z,1.02
2023-09-10T14:30:16.046Z,2.08
2023-09-10T14:32:43.119Z,1.10
2023-09-10T14:35:10.210Z,1.15
2023-09-10T14:37:36.990Z,1.70
2023-09-10T14:40:07.339Z,1.73
2023-09-10T14:42:35.346Z,0.95
2023-09-10T14:45:02.087Z,1.15
2023-09-10T14:47:28.895Z,1.00
2023-09-10T14:49:55.634Z,0.95
2023-09-10T14:52:22.566Z,1.30
2023-09-10T14:54:49.468Z,0.98
2023-09-10T14:57:16.198Z,1.05
2023-09-10T14:59:42.910Z,1.25
2023-09-10T15:02:10.192Z,1.25
2023-09-10T15:04:36.897Z,1.00
2023-09-10T15:07:03.757Z,1.27
2023-09-10T15:09:30.617Z,1.20
2023-09-10T15:11:57.328Z,1.30
2023-09-10T15:14:24.196Z,1.02
2023-09-10T15:16:50.978Z,1.67
2023-09-10T15:19:18.163Z,1.00
2023-09-10T15:21:44.992Z,1.20
2023-09-10T15:24:11.782Z,1.17
2023-09-10T15:26:38.550Z,1.00
2023-09-10T15:29:05.426Z,1.20
2023-09-10T15:31:36.404Z,1.02
2023-09-10T15:34:04.094Z,1.05
2023-09-10T15:36:31.033Z,1.10
2023-09-10T15:38:57.753Z,1.30
2023-09-10T15:41:25.149Z,1.30
2023-09-10T15:43:52.318Z,1.38
2023-09-10T15:46:19.121Z,1.05
2023-09-10T15:48:45.805Z,1.30
2023-09-10T15:51:12.539Z,0.90
2023-09-10T15:53:39.785Z,1.40
2023-09-10T15:56:06.766Z,1.05
2023-09-10T15:58:35.635Z,1.30
2023-09-10T16:01:02.505Z,1.83
2023-09-10T16:03:29.333Z,1.25
2023-09-10T16:05:57.772Z,1.13
2023-09-10T16:08:28.613Z,1.13
2023-09-10T16:10:58.256Z,1.42
2023-09-10T16:13:26.716Z,1.80
2023-09-10T16:15:53.567Z,1.55
2023-09-10T16:18:20.358Z,1.80
2023-09-10T16:20:47.286Z,2.75
2023-09-10T16:23:14.099Z,2.45
2023-09-10T16:25:40.821Z,3.03
2023-09-10T16:28:07.605Z,3.28
2023-09-10T16:30:35.512Z,4.97
2023-09-10T16:33:02.316Z,3.22
2023-09-10T16:35:29.122Z,2.92
2023-09-10T16:37:55.924Z,3.90
2023-09-10T16:40:22.783Z,2.58
2023-09-10T16:42:49.611Z,1.83
2023-09-10T16:45:16.637Z,1.30
2023-09-10T16:47:43.364Z,1.27
2023-09-10T16:50:11.817Z,1.10
2023-09-10T16:52:38.620Z,1.42
2023-09-10T16:55:05.522Z,1.30
2023-09-10T16:57:32.344Z,1.20
2023-09-10T16:59:59.064Z,1.17
2023-09-10T17:02:25.902Z,1.10
2023-09-10T17:04:52.758Z,1.10
2023-09-10T17:07:19.552Z,1.10
2023-09-10T17:09:46.393Z,1.00
2023-09-10T17:12:13.255Z,0.93
2023-09-10T17:14:40.065Z,1.85
2023-09-10T17:17:06.867Z,1.20
2023-09-10T17:19:34.519Z,1.40
2023-09-10T17:24:29.850Z,1.20
2023-09-10T17:26:56.562Z,0.90
2023-09-10T17:29:23.388Z,0.93
2023-09-10T17:31:51.336Z,1.30
2023-09-10T17:34:18.094Z,1.40
2023-09-10T17:36:44.867Z,1.00
2023-09-10T17:39:11.630Z,1.40
2023-09-10T17:41:38.447Z,1.30
2023-09-10T17:44:05.292Z,1.30
2023-09-10T17:46:33.488Z,0.98
2023-09-10T17:49:00.315Z,1.20
2023-09-10T17:51:27.981Z,1.10
2023-09-10T17:56:21.501Z,1.25
2023-09-10T17:58:48.275Z,1.10
2023-09-10T18:01:15.128Z,1.30
2023-09-10T18:03:44.172Z,1.17
2023-09-10T18:06:11.206Z,1.17
2023-09-10T18:08:37.919Z,1.17
2023-09-10T18:11:04.849Z,1.35
2023-09-10T18:13:31.787Z,1.25
2023-09-10T18:15:58.503Z,1.48
2023-09-10T18:18:25.823Z,1.20
2023-09-10T18:20:52.661Z,1.35
2023-09-10T18:23:19.449Z,1.13
2023-09-10T18:25:46.409Z,1.50
2023-09-10T18:28:13.115Z,1.20
2023-09-10T18:30:40.933Z,1.48
2023-09-10T18:33:09.851Z,1.65
2023-09-10T18:35:37.598Z,1.27
2023-09-10T18:38:04.650Z,1.27
2023-09-10T18:40:31.826Z,1.30
2023-09-10T18:42:58.920Z,1.20
2023-09-10T18:45:27.990Z,1.23
2023-09-10T18:47:54.788Z,1.50
2023-09-10T18:50:21.702Z,1.70
2023-09-10T18:52:50.556Z,1.48
2023-09-10T18:55:17.525Z,1.35
2023-09-10T18:57:44.286Z,1.35
2023-09-10T19:00:11.552Z,1.55
2023-09-10T19:02:39.925Z,1.60
2023-09-10T19:05:07.247Z,1.60
2023-09-10T19:07:34.050Z,1.40
2023-09-10T19:10:01.331Z,2.33
2023-09-10T19:12:28.164Z,1.55
2023-09-10T19:14:54.948Z,1.52
2023-09-10T19:17:21.697Z,1.77
2023-09-10T19:19:48.810Z,1.83
2023-09-10T19:22:15.520Z,1.67
2023-09-10T19:24:42.331Z,2.20
2023-09-10T19:27:09.105Z,2.50
2023-09-10T19:29:35.902Z,2.20
2023-09-10T19:32:03.791Z,1.73
2023-09-10T19:34:30.542Z,1.90
2023-09-10T19:36:58.498Z,1.73
2023-09-10T19:39:29.085Z,2.17
2023-09-10T19:41:58.406Z,1.58
2023-09-10T19:44:25.260Z,1.45
2023-09-10T19:46:52.118Z,1.55
2023-09-10T19:49:19.018Z,2.13
2023-09-10T19:51:49.838Z,2.50
2023-09-10T19:54:16.534Z,1.40
2023-09-10T19:56:43.331Z,1.52
2023-09-10T19:59:14.162Z,1.17
2023-09-10T20:01:43.871Z,1.10
2023-09-10T20:04:11.865Z,1.20
2023-09-10T20:06:40.325Z,1.30
2023-09-10T20:09:10.882Z,1.10
2023-09-10T20:11:38.892Z,1.10
2023-09-10T20:14:07.484Z,1.27
2023-09-10T20:16:36.001Z,1.20
2023-09-10T20:19:02.907Z,1.38
2023-09-10T20:21:29.860Z,1.25
2023-09-10T20:23:56.690Z,1.70
2023-09-10T20:26:26.611Z,1.13
2023-09-10T20:28:56.530Z,1.20
2023-09-10T20:31:23.394Z,1.20
2023-09-10T20:33:50.393Z,1.25
2023-09-10T20:36:17.269Z,1.27
2023-09-10T20:38:44.181Z,1.15
2023-09-10T20:41:14.459Z,1.20
2023-09-10T20:43:41.723Z,1.60
2023-09-10T20:46:09.268Z,1.38
2023-09-10T20:48:36.090Z,1.20
2023-09-10T20:51:05.293Z,1.13
2023-09-10T20:53:32.812Z,1.02
2023-09-10T20:55:59.719Z,1.00
2023-09-10T20:58:26.510Z,1.00
2023-09-10T21:00:53.902Z,1.20
2023-09-10T21:03:28.632Z,1.10
2023-09-10T21:06:07.460Z,1.20
2023-09-10T21:08:34.375Z,1.50
2023-09-10T21:11:05.265Z,1.80
2023-09-10T21:13:32.031Z,1.42
2023-09-10T21:15:58.770Z,1.25
2023-09-10T21:18:25.544Z,1.45
2023-09-10T21:20:53.138Z,1.20
2023-09-10T21:25:46.697Z,1.52
2023-09-10T21:28:13.467Z,1.30
2023-09-10T21:30:40.251Z,1.20
2023-09-10T21:33:07.135Z,1.13
2023-09-10T21:35:34.142Z,1.40
2023-09-10T21:38:01.045Z,1.35
2023-09-10T21:40:27.736Z,1.30
2023-09-10T21:42:54.506Z,1.23
2023-09-10T21:45:21.245Z,1.27
2023-09-10T21:47:47.999Z,1.35
2023-09-10T21:50:14.950Z,1.30
2023-09-10T21:52:41.753Z,1.20
2023-09-10T21:55:09.080Z,1.50
2023-09-10T21:57:35.883Z,2.15
2023-09-10T22:00:04.268Z,1.27
2023-09-10T22:02:31.274Z,1.35
2023-09-10T22:04:59.254Z,1.10
2023-09-10T22:07:26.333Z,1.30
2023-09-10T22:09:55.118Z,1.40
2023-09-10T22:12:22.063Z,1.60
2023-09-10T22:14:48.896Z,1.20
2023-09-10T22:17:15.758Z,1.38
2023-09-10T22:19:43.189Z,1.30
2023-09-10T22:22:16.220Z,1.38
2023-09-10T22:24:45.389Z,1.30
2023-09-10T22:27:12.158Z,1.20
2023-09-10T22:29:39.537Z,1.40
2023-09-10T22:32:06.435Z,1.60
2023-09-10T22:34:33.947Z,1.40
2023-09-10T22:37:00.678Z,1.30
2023-09-10T22:39:27.403Z,1.23
2023-09-10T22:41:54.174Z,1.60
2023-09-10T22:44:20.964Z,1.45
2023-09-10T22:46:47.778Z,1.23
2023-09-10T22:49:14.507Z,1.30
2023-09-10T22:51:44.179Z,1.30
2023-09-10T22:54:11.358Z,1.50
2023-09-10T22:56:38.145Z,1.33
2023-09-10T22:59:04.893Z,1.27
2023-09-10T23:01:31.690Z,1.55
2023-09-10T23:03:58.571Z,1.40
2023-09-10T23:06:25.278Z,1.52
2023-09-10T23:08:52.017Z,1.33
2023-09-10T23:11:18.810Z,1.52
2023-09-10T23:13:45.613Z,1.40
2023-09-10T23:16:12.344Z,1.45
2023-09-10T23:18:39.354Z,1.50
2023-09-10T23:21:06.295Z,1.40
2023-09-10T23:23:33.079Z,1.38
2023-09-10T23:26:02.432Z,1.45
2023-09-10T23:28:29.418Z,1.27
2023-09-10T23:30:56.194Z,1.23
2023-09-10T23:33:22.971Z,1.58
2023-09-10T23:35:49.767Z,1.35
2023-09-10T23:38:16.556Z,1.40
2023-09-10T23:40:54.780Z,1.08
2023-09-10T23:43:21.622Z,1.40
2023-09-10T23:45:48.393Z,1.50
2023-09-10T23:48:18.660Z,1.30
2023-09-10T23:50:45.865Z,1.40
2023-09-10T23:53:13.228Z,1.60
2023-09-10T23:55:39.991Z,1.70
2023-09-10T23:58:07.703Z,1.65
